Balfour, Canada
Current Conditions -  °F | °C
As of 7:00 AM on Saturday 25 Oct 2014 (Local Time) from CYCG Reporting Station
Broken Clouds Broken Clouds  
Wind Chill: 40°   Ceiling: 9000
Heat Index: 43°   Visibility: 15mi
Dew Point: 41°   Wind: 5mph
Humidity: 93%   Direction: 30°NNE
Pressure: 29.83"   Gusts: NA
Location:  49.63°N, 116.97°W
Report Text: CYCG 251400Z 03004KT 340V040 15SM FEW020 SCT060 BKN090 06/05 A2983 RMK SC2SC2AC3 SLP109
Loading
Personal Weather Stations






























Interactive Weather Map
Tropical Storm Tracking
New forecast layout! Learn more

10-Day Weather Forecast

Advertisements
Track Severe Weather on mobile